createdAt,value
2022-11-20T00:04:52.768Z,-5.59
2022-11-20T00:09:54.382Z,-5.79
2022-11-20T00:14:56.020Z,-5.56
2022-11-20T00:19:57.705Z,-5.28
2022-11-20T00:24:59.347Z,-5.46
2022-11-20T00:30:01.054Z,-5.61
2022-11-20T00:35:02.686Z,-5.78
2022-11-20T00:40:04.778Z,-5.79
2022-11-20T00:45:06.771Z,-5.83
2022-11-20T00:50:08.848Z,-6.00
2022-11-20T00:55:10.455Z,-6.02
2022-11-20T01:00:12.282Z,-5.95
2022-11-20T01:05:14.046Z,-6.00
2022-11-20T01:10:15.747Z,-6.03
2022-11-20T01:15:17.440Z,-6.04
2022-11-20T01:20:19.052Z,-6.02
2022-11-20T01:25:20.675Z,-6.04
2022-11-20T01:30:22.341Z,-5.80
2022-11-20T01:35:24.004Z,-5.80
2022-11-20T01:40:25.670Z,-6.04
2022-11-20T01:46:00.865Z,-5.97
2022-11-20T01:51:05.042Z,-6.29
2022-11-20T01:56:11.163Z,-6.24
2022-11-20T02:01:14.110Z,-6.36
2022-11-20T02:06:28.929Z,-5.88
2022-11-20T02:11:31.732Z,-5.92
2022-11-20T02:16:39.550Z,-6.05
2022-11-20T02:21:54.517Z,-6.29
2022-11-20T02:27:01.476Z,-6.39
2022-11-20T02:32:04.132Z,-6.05
2022-11-20T02:37:05.827Z,-5.85
2022-11-20T02:42:07.479Z,-6.04
2022-11-20T02:47:09.451Z,-6.17
2022-11-20T02:52:11.135Z,-6.24
2022-11-20T02:57:12.788Z,-6.12
2022-11-20T03:02:14.462Z,-5.95
2022-11-20T03:07:16.820Z,-6.03
2022-11-20T03:12:18.490Z,-6.32
2022-11-20T03:17:20.373Z,-6.25
2022-11-20T03:22:22.007Z,-6.19
2022-11-20T03:27:23.619Z,-6.45
2022-11-20T03:32:25.226Z,-6.32
2022-11-20T03:37:26.839Z,-6.52
2022-11-20T03:42:46.472Z,-6.54
2022-11-20T03:47:48.154Z,-6.58
2022-11-20T03:52:49.779Z,-6.86
2022-11-20T03:57:51.409Z,-6.76
2022-11-20T04:02:52.991Z,-6.80
2022-11-20T04:07:54.828Z,-6.85
2022-11-20T04:12:56.451Z,-6.89
2022-11-20T04:17:58.051Z,-6.79
2022-11-20T04:22:59.690Z,-6.89
2022-11-20T04:28:01.377Z,-6.45
2022-11-20T04:33:03.006Z,-6.75
2022-11-20T04:38:05.247Z,-6.63
2022-11-20T04:43:06.903Z,-6.71
2022-11-20T04:48:08.565Z,-6.84
2022-11-20T04:53:10.216Z,-6.65
2022-11-20T04:58:12.218Z,-6.89
2022-11-20T05:03:13.914Z,-6.95
2022-11-20T05:08:15.582Z,-6.97
2022-11-20T05:13:17.187Z,-6.74
2022-11-20T05:18:18.920Z,-7.18
2022-11-20T05:23:20.544Z,-7.16
2022-11-20T05:28:23.088Z,-6.96
2022-11-20T05:33:24.650Z,-7.29
2022-11-20T05:38:26.313Z,-7.32
2022-11-20T05:43:28.012Z,-7.08
2022-11-20T05:48:29.823Z,-7.03
2022-11-20T05:53:32.801Z,-7.08
2022-11-20T05:58:35.101Z,-7.30
2022-11-20T06:03:37.204Z,-7.48
2022-11-20T06:08:38.892Z,-7.53
2022-11-20T06:13:42.615Z,-7.49
2022-11-20T06:18:44.756Z,-7.52
2022-11-20T06:23:47.644Z,-7.41
2022-11-20T06:28:50.400Z,-7.17
2022-11-20T06:33:52.302Z,-6.96
2022-11-20T06:38:53.918Z,-7.20
2022-11-20T06:43:56.840Z,-6.96
2022-11-20T06:48:59.308Z,-7.00
2022-11-20T06:54:02.006Z,-7.16
2022-11-20T06:59:08.230Z,-7.24
2022-11-20T07:04:09.864Z,-7.14
2022-11-20T07:09:12.983Z,-7.09
2022-11-20T07:14:14.788Z,-7.20
2022-11-20T07:19:16.664Z,-7.15
2022-11-20T07:24:18.429Z,-7.12
2022-11-20T07:29:20.772Z,-6.84
2022-11-20T07:34:22.617Z,-6.71
2022-11-20T07:39:24.365Z,-6.65
2022-11-20T07:44:26.026Z,-6.59
2022-11-20T07:49:27.959Z,-6.44
2022-11-20T07:54:29.720Z,-6.30
2022-11-20T07:59:31.369Z,-6.05
2022-11-20T08:04:34.302Z,-5.99
2022-11-20T08:09:35.956Z,-5.88
2022-11-20T08:14:37.646Z,-5.68
2022-11-20T08:19:39.288Z,-5.55
2022-11-20T08:24:40.966Z,-5.52
2022-11-20T08:29:42.724Z,-5.42
2022-11-20T08:34:44.390Z,-5.43
2022-11-20T08:39:46.075Z,-5.21
2022-11-20T08:44:48.055Z,-4.53
2022-11-20T08:49:49.719Z,-4.20
2022-11-20T08:54:51.427Z,-4.16
2022-11-20T09:00:09.298Z,-4.27
2022-11-20T09:05:11.259Z,-4.27
2022-11-20T09:10:28.411Z,-4.12
2022-11-20T09:15:30.147Z,-3.95
2022-11-20T09:20:32.200Z,-3.51
2022-11-20T09:25:34.001Z,-3.60
2022-11-20T09:30:35.793Z,-3.46
2022-11-20T09:35:37.457Z,-3.46
2022-11-20T09:40:52.773Z,-2.96
2022-11-20T09:46:30.071Z,-3.30
2022-11-20T09:51:53.691Z,-2.95
2022-11-20T09:57:00.690Z,-2.94
2022-11-20T10:02:07.623Z,-2.55
2022-11-20T10:07:36.024Z,-2.48
2022-11-20T10:13:28.841Z,-2.31
2022-11-20T10:18:49.121Z,-2.14
2022-11-20T10:24:15.515Z,-2.05
2022-11-20T10:29:19.487Z,-1.72
2022-11-20T10:34:45.786Z,-1.69
2022-11-20T10:40:30.027Z,-1.36
2022-11-20T10:45:45.360Z,-1.35
2022-11-20T10:51:28.732Z,-0.93
2022-11-20T10:56:53.357Z,-0.29
2022-11-20T11:01:55.070Z,1.00
2022-11-20T11:07:05.795Z,0.76
2022-11-20T11:12:09.943Z,0.57
2022-11-20T11:17:33.522Z,0.67
2022-11-20T11:22:46.425Z,0.65
2022-11-20T11:27:49.469Z,0.85
2022-11-20T11:32:51.657Z,0.61
2022-11-20T11:38:24.900Z,0.14
2022-11-20T11:43:49.130Z,0.60
2022-11-20T11:49:17.231Z,0.53
2022-11-20T11:54:25.041Z,0.64
2022-11-20T12:00:10.973Z,0.49
2022-11-20T12:05:37.304Z,0.46
2022-11-20T12:10:46.259Z,0.46
2022-11-20T12:15:49.158Z,0.29
2022-11-20T12:21:06.509Z,0.36
2022-11-20T12:26:57.197Z,0.32
2022-11-20T12:32:16.752Z,0.13
2022-11-20T12:37:36.760Z,-0.04
2022-11-20T12:43:02.871Z,0.29
2022-11-20T12:48:19.905Z,0.09
2022-11-20T12:53:58.950Z,0.29
2022-11-20T12:59:26.667Z,0.24
2022-11-20T13:05:10.388Z,0.32
2022-11-20T13:10:31.680Z,0.23
2022-11-20T13:15:56.963Z,0.10
2022-11-20T13:20:59.058Z,0.07
2022-11-20T13:26:06.471Z,0.24
2022-11-20T13:31:26.486Z,0.49
2022-11-20T13:36:31.259Z,0.36
2022-11-20T13:41:39.068Z,0.27
2022-11-20T13:46:47.413Z,0.09
2022-11-20T13:51:52.269Z,-0.13
2022-11-20T13:57:08.401Z,-0.14
2022-11-20T14:02:17.136Z,0.09
2022-11-20T14:07:24.818Z,-0.09
2022-11-20T14:12:32.049Z,-0.15
2022-11-20T14:17:36.024Z,-0.14
2022-11-20T14:22:37.639Z,-0.09
2022-11-20T14:27:42.329Z,-0.38
2022-11-20T14:32:46.086Z,-0.43
2022-11-20T14:37:48.451Z,-0.55
2022-11-20T14:42:50.489Z,-0.53
2022-11-20T14:47:57.905Z,-0.74
2022-11-20T14:53:01.280Z,-0.83
2022-11-20T14:58:05.967Z,-0.83
2022-11-20T15:03:17.191Z,-1.20
2022-11-20T15:08:19.274Z,-1.34
2022-11-20T15:13:35.505Z,-1.35
2022-11-20T15:18:45.612Z,-1.56
2022-11-20T15:23:47.941Z,-1.59
2022-11-20T15:28:51.727Z,-1.69
2022-11-20T15:33:53.429Z,-1.82
2022-11-20T15:38:55.134Z,-1.88
2022-11-20T15:43:56.835Z,-1.88
2022-11-20T15:49:00.772Z,-2.01
2022-11-20T15:54:14.018Z,-2.16
2022-11-20T15:59:16.542Z,-2.22
2022-11-20T16:04:19.329Z,-2.25
2022-11-20T16:09:21.331Z,-2.29
2022-11-20T16:14:41.530Z,-2.42
2022-11-20T16:19:43.150Z,-2.28
2022-11-20T16:24:44.781Z,-2.46
2022-11-20T16:29:46.811Z,-2.52
2022-11-20T16:34:48.766Z,-2.62
2022-11-20T16:39:50.998Z,-2.62
2022-11-20T16:44:52.686Z,-2.72
2022-11-20T16:49:54.299Z,-2.71
2022-11-20T16:54:56.235Z,-2.73
2022-11-20T17:00:02.055Z,-2.71
2022-11-20T17:05:04.697Z,-2.99
2022-11-20T17:10:06.797Z,-3.03
2022-11-20T17:15:08.896Z,-2.98
2022-11-20T17:20:12.284Z,-3.13
2022-11-20T17:25:14.697Z,-3.20
2022-11-20T17:30:16.418Z,-3.33
2022-11-20T17:35:18.037Z,-3.28
2022-11-20T17:40:23.226Z,-3.30
2022-11-20T17:45:28.706Z,-3.25
2022-11-20T17:50:30.400Z,-3.28
2022-11-20T17:55:55.613Z,-2.76
2022-11-20T18:01:05.243Z,-2.42
2022-11-20T18:06:22.305Z,-2.13
2022-11-20T18:11:30.176Z,-1.98
2022-11-20T18:16:36.315Z,-2.13
2022-11-20T18:21:38.029Z,-2.31
2022-11-20T18:26:44.052Z,-2.56
2022-11-20T18:31:46.300Z,-2.47
2022-11-20T18:36:48.087Z,-2.71
2022-11-20T18:42:08.751Z,-2.81
2022-11-20T18:47:14.952Z,-2.97
2022-11-20T18:52:17.662Z,-3.06
2022-11-20T18:57:21.823Z,-3.19
2022-11-20T19:02:23.655Z,-3.32
2022-11-20T19:07:25.762Z,-3.37
2022-11-20T19:12:27.516Z,-3.31
2022-11-20T19:17:29.444Z,-3.49
2022-11-20T19:22:31.401Z,-3.58
2022-11-20T19:27:33.815Z,-3.56
2022-11-20T19:32:35.857Z,-3.61
2022-11-20T19:37:41.077Z,-3.50
2022-11-20T19:42:43.084Z,-3.26
2022-11-20T19:48:06.553Z,-3.65
2022-11-20T19:53:08.016Z,-3.71
2022-11-20T19:58:09.651Z,-3.73
2022-11-20T20:03:11.335Z,-3.79
2022-11-20T20:08:16.961Z,-3.62
2022-11-20T20:13:18.985Z,-3.79
2022-11-20T20:18:20.966Z,-3.60
2022-11-20T20:23:22.795Z,-3.86
2022-11-20T20:28:24.689Z,-3.73
2022-11-20T20:33:26.343Z,-3.69
2022-11-20T20:38:28.081Z,-3.28
2022-11-20T20:43:29.968Z,-3.14
2022-11-20T20:48:31.690Z,-3.07
2022-11-20T20:53:34.116Z,-2.99
2022-11-20T20:58:36.403Z,-3.15
2022-11-20T21:03:38.769Z,-3.19
2022-11-20T21:08:43.513Z,-3.19
2022-11-20T21:13:47.529Z,-2.94
2022-11-20T21:18:49.405Z,-3.14
2022-11-20T21:23:52.092Z,-3.03
2022-11-20T21:28:53.892Z,-2.79
2022-11-20T21:33:56.738Z,-2.53
2022-11-20T21:38:59.497Z,-2.62
2022-11-20T21:49:25.916Z,-2.61
2022-11-20T21:54:27.802Z,-2.56
2022-11-20T21:59:29.408Z,-2.21
2022-11-20T22:04:31.025Z,-2.17
2022-11-20T22:09:32.659Z,-1.97
2022-11-20T22:14:34.276Z,-1.93
2022-11-20T22:19:35.850Z,-2.16
2022-11-20T22:24:37.478Z,-2.41
2022-11-20T22:29:39.086Z,-2.21
2022-11-20T22:34:40.674Z,-2.34
2022-11-20T22:39:42.297Z,-2.34
2022-11-20T22:44:43.887Z,-2.15
2022-11-20T22:49:45.496Z,-1.88
2022-11-20T22:54:47.119Z,-2.16
2022-11-20T22:59:48.790Z,-1.91
2022-11-20T23:04:50.474Z,-2.31
2022-11-20T23:09:52.095Z,-2.40
2022-11-20T23:14:53.713Z,-1.94
2022-11-20T23:19:55.343Z,-2.15
2022-11-20T23:24:57.038Z,-2.17
2022-11-20T23:29:59.240Z,-1.96
2022-11-20T23:35:00.893Z,-1.86
2022-11-20T23:40:03.283Z,-2.22
2022-11-20T23:45:05.225Z,-2.17
2022-11-20T23:50:07.051Z,-2.13
2022-11-20T23:55:08.818Z,-2.15
